Carlin, Nevada
Current Conditions -  °F | °C
As of 9:41 PM on Sunday 21 Dec 2014 (Local Time) from KEKO Reporting Station
Light Rain Light Rain  
Wind Chill: 40°   Ceiling: 3200
Heat Index: 46°   Visibility: 10mi
Dew Point: 43°   Wind: 14mph
Humidity: 89%   Direction: 270°W
Pressure: 30.13"   Gusts: NA
Location:  40.71°N, 116.1°W
Report Text: KEKO 220541Z AUTO 27012KT 10SM -RA SCT018 BKN032 OVC050 08/06 A3013 RMK AO2 RAB20 P0001 T00780061
Loading
Personal Weather Stations






























Interactive Weather Map New forecast layout! Learn more

10-Day Weather Forecast

Advertisements
Track Severe Weather on mobile